RYR78LL LEVC-LIPE
Flight info
| Callsign | RYR78LL |
|---|---|
| Flight time | 1h 29m |
| Altitude | 39000 |
| Route | SOPET M985 LUMAS DCT UNANA DCT STP DCT RAPED DCT PIGOS DCT EKSID DCT NOSTA DCT NOPMU DCT KALMO Y239 NIGSO |
| Aircraft | B738/M-SDE2E3FGHIRWXY/LB1 |
Departure
| Time | 2026-05-06 16:42 |
|---|---|
| Airport | Valencia Airport (LEVC) |
Arrival
| Time | 2026-05-06 18:11 |
|---|---|
| Airport | Bologna Guglielmo Marconi Airport (LIPE) |
| Time | Latitude | Longitude | Altitude | Speed | Heading |
|---|---|---|---|---|---|
| 2026-05-06 16:09 | 39.49065 | -0.47446 | 172 ft | 0 kts | 40° |
| 2026-05-06 16:30 | 39.49065 | -0.47447 | 174 ft | 0 kts | 40° |
| 2026-05-06 16:30 | 39.49059 | -0.47453 | 173 ft | 2 kts | 40° |
| 2026-05-06 16:31 | 39.49047 | -0.47465 | 173 ft | 2 kts | 40° |
| 2026-05-06 16:31 | 39.49036 | -0.47478 | 172 ft | 2 kts | 40° |
| 2026-05-06 16:31 | 39.49024 | -0.47490 | 171 ft | 2 kts | 21° |
| 2026-05-06 16:31 | 39.49009 | -0.47491 | 170 ft | 2 kts | 337° |
| 2026-05-06 16:32 | 39.48997 | -0.47478 | 170 ft | 2 kts | 296° |
| 2026-05-06 16:32 | 39.48993 | -0.47464 | 169 ft | 0 kts | 293° |
| 2026-05-06 16:32 | 39.48992 | -0.47461 | 169 ft | 0 kts | 295° |
| 2026-05-06 16:34 | 39.48992 | -0.47462 | 169 ft | 0 kts | 295° |
| 2026-05-06 16:35 | 39.48998 | -0.47477 | 170 ft | 3 kts | 296° |
| 2026-05-06 16:35 | 39.49016 | -0.47524 | 171 ft | 7 kts | 296° |
| 2026-05-06 16:35 | 39.49042 | -0.47591 | 174 ft | 9 kts | 296° |
| 2026-05-06 16:35 | 39.49061 | -0.47647 | 177 ft | 4 kts | 284° |
| 2026-05-06 16:36 | 39.49062 | -0.47674 | 178 ft | 2 kts | 261° |
| 2026-05-06 16:36 | 39.49055 | -0.47703 | 179 ft | 4 kts | 253° |
| 2026-05-06 16:36 | 39.49045 | -0.47746 | 180 ft | 7 kts | 254° |
| 2026-05-06 16:36 | 39.49031 | -0.47825 | 183 ft | 11 kts | 257° |
| 2026-05-06 16:37 | 39.49046 | -0.47935 | 189 ft | 13 kts | 297° |
| 2026-05-06 16:37 | 39.49094 | -0.48059 | 195 ft | 17 kts | 296° |
| 2026-05-06 16:37 | 39.49152 | -0.48212 | 201 ft | 21 kts | 296° |
| 2026-05-06 16:37 | 39.49219 | -0.48392 | 207 ft | 23 kts | 295° |
| 2026-05-06 16:38 | 39.49293 | -0.48582 | 213 ft | 23 kts | 296° |
| 2026-05-06 16:38 | 39.49358 | -0.48754 | 219 ft | 19 kts | 296° |
| 2026-05-06 16:38 | 39.49412 | -0.48897 | 222 ft | 16 kts | 296° |
| 2026-05-06 16:38 | 39.49459 | -0.49020 | 225 ft | 15 kts | 296° |
| 2026-05-06 16:39 | 39.49520 | -0.49176 | 225 ft | 23 kts | 297° |
| 2026-05-06 16:39 | 39.49594 | -0.49374 | 227 ft | 23 kts | 295° |
| 2026-05-06 16:39 | 39.49667 | -0.49565 | 225 ft | 23 kts | 296° |
| 2026-05-06 16:39 | 39.49737 | -0.49749 | 226 ft | 22 kts | 296° |
| 2026-05-06 16:40 | 39.49793 | -0.49895 | 227 ft | 13 kts | 297° |
| 2026-05-06 16:40 | 39.49781 | -0.49965 | 229 ft | 7 kts | 209° |
| 2026-05-06 16:40 | 39.49741 | -0.49992 | 230 ft | 5 kts | 206° |
| 2026-05-06 16:40 | 39.49698 | -0.50019 | 231 ft | 8 kts | 205° |
| 2026-05-06 16:41 | 39.49645 | -0.50021 | 232 ft | 7 kts | 136° |
| 2026-05-06 16:41 | 39.49594 | -0.49903 | 231 ft | 35 kts | 115° |
| 2026-05-06 16:41 | 39.49386 | -0.49353 | 228 ft | 98 kts | 116° |
| 2026-05-06 16:41 | 39.48997 | -0.48334 | 209 ft | 151 kts | 116° |
| 2026-05-06 16:42 | 39.48482 | -0.47011 | 497 ft | 166 kts | 117° |
| 2026-05-06 16:42 | 39.47952 | -0.45715 | 1116 ft | 166 kts | 117° |
| 2026-05-06 16:42 | 39.47340 | -0.44456 | 1640 ft | 171 kts | 131° |
| 2026-05-06 16:42 | 39.46438 | -0.43366 | 2008 ft | 185 kts | 140° |
| 2026-05-06 16:43 | 39.45440 | -0.42226 | 2378 ft | 199 kts | 130° |
| 2026-05-06 16:43 | 39.44577 | -0.40759 | 2756 ft | 214 kts | 124° |
| 2026-05-06 16:43 | 39.43731 | -0.39115 | 3286 ft | 222 kts | 123° |
| 2026-05-06 16:43 | 39.42850 | -0.37406 | 3721 ft | 236 kts | 123° |
| 2026-05-06 16:44 | 39.41913 | -0.35604 | 4122 ft | 250 kts | 124° |
| 2026-05-06 16:44 | 39.40904 | -0.33681 | 4574 ft | 262 kts | 124° |
| 2026-05-06 16:44 | 39.39881 | -0.31743 | 5161 ft | 267 kts | 123° |
| 2026-05-06 16:44 | 39.39073 | -0.29546 | 5758 ft | 273 kts | 102° |
| 2026-05-06 16:45 | 39.39183 | -0.27122 | 6372 ft | 278 kts | 70° |
| 2026-05-06 16:45 | 39.40300 | -0.25100 | 6995 ft | 284 kts | 40° |
| 2026-05-06 16:45 | 39.41966 | -0.23758 | 7613 ft | 289 kts | 22° |
| 2026-05-06 16:45 | 39.43943 | -0.23181 | 8297 ft | 292 kts | 7° |
| 2026-05-06 16:46 | 39.45978 | -0.22960 | 8940 ft | 296 kts | 5° |
| 2026-05-06 16:46 | 39.48011 | -0.22766 | 9612 ft | 299 kts | 5° |
| 2026-05-06 16:46 | 39.50112 | -0.22559 | 10276 ft | 303 kts | 4° |
| 2026-05-06 16:46 | 39.52258 | -0.22344 | 10650 ft | 318 kts | 4° |
| 2026-05-06 16:47 | 39.54509 | -0.22114 | 11024 ft | 333 kts | 4° |
| 2026-05-06 16:47 | 39.56856 | -0.21873 | 11398 ft | 348 kts | 4° |
| 2026-05-06 16:47 | 39.59314 | -0.21620 | 11886 ft | 358 kts | 4° |
| 2026-05-06 16:47 | 39.61827 | -0.21361 | 12567 ft | 363 kts | 4° |
| 2026-05-06 16:48 | 39.64364 | -0.21064 | 13264 ft | 367 kts | 6° |
| 2026-05-06 16:48 | 39.66868 | -0.20327 | 13946 ft | 373 kts | 19° |
| 2026-05-06 16:48 | 39.69123 | -0.18708 | 14637 ft | 379 kts | 37° |
| 2026-05-06 16:48 | 39.71099 | -0.16421 | 15329 ft | 384 kts | 43° |
| 2026-05-06 16:49 | 39.73015 | -0.13964 | 15998 ft | 389 kts | 44° |
| 2026-05-06 16:49 | 39.74944 | -0.11432 | 16642 ft | 395 kts | 44° |
| 2026-05-06 16:49 | 39.76864 | -0.08918 | 17269 ft | 400 kts | 44° |
| 2026-05-06 16:49 | 39.78852 | -0.06331 | 17898 ft | 405 kts | 43° |
| 2026-05-06 16:50 | 39.80844 | -0.03758 | 18508 ft | 410 kts | 43° |
| 2026-05-06 16:50 | 39.82909 | -0.01107 | 19115 ft | 415 kts | 43° |
| 2026-05-06 16:50 | 39.84938 | 0.01535 | 19715 ft | 419 kts | 44° |
| 2026-05-06 16:50 | 39.86962 | 0.04281 | 20298 ft | 424 kts | 44° |
| 2026-05-06 16:51 | 39.89006 | 0.07122 | 20826 ft | 430 kts | 45° |
| 2026-05-06 16:51 | 39.91035 | 0.09969 | 21303 ft | 436 kts | 45° |
| 2026-05-06 16:51 | 39.93110 | 0.12887 | 21776 ft | 443 kts | 45° |
| 2026-05-06 16:51 | 39.95211 | 0.15840 | 22238 ft | 449 kts | 45° |
| 2026-05-06 16:52 | 39.97338 | 0.18825 | 22707 ft | 454 kts | 45° |
| 2026-05-06 16:52 | 39.99490 | 0.21844 | 23197 ft | 458 kts | 45° |
| 2026-05-06 16:52 | 40.01668 | 0.24896 | 23679 ft | 462 kts | 45° |
| 2026-05-06 16:52 | 40.03879 | 0.27990 | 24151 ft | 466 kts | 45° |
| 2026-05-06 16:53 | 40.06108 | 0.31111 | 24627 ft | 470 kts | 45° |
| 2026-05-06 16:53 | 40.08338 | 0.34232 | 25095 ft | 474 kts | 45° |
| 2026-05-06 16:53 | 40.10574 | 0.37364 | 25551 ft | 478 kts | 45° |
| 2026-05-06 16:53 | 40.12855 | 0.40561 | 25999 ft | 482 kts | 45° |
| 2026-05-06 16:54 | 40.15172 | 0.43813 | 26443 ft | 486 kts | 45° |
| 2026-05-06 16:54 | 40.17475 | 0.47048 | 26877 ft | 490 kts | 45° |
| 2026-05-06 16:54 | 40.19794 | 0.50309 | 27304 ft | 494 kts | 45° |
| 2026-05-06 16:54 | 40.22115 | 0.53576 | 27723 ft | 498 kts | 45° |
| 2026-05-06 16:55 | 40.24496 | 0.56931 | 28139 ft | 502 kts | 45° |
| 2026-05-06 16:55 | 40.26876 | 0.60289 | 28542 ft | 505 kts | 45° |
| 2026-05-06 16:55 | 40.29261 | 0.63660 | 29047 ft | 505 kts | 45° |
| 2026-05-06 16:55 | 40.31648 | 0.67039 | 29614 ft | 504 kts | 45° |
| 2026-05-06 16:56 | 40.34008 | 0.70385 | 30142 ft | 503 kts | 45° |
| 2026-05-06 16:56 | 40.36367 | 0.73732 | 30648 ft | 503 kts | 45° |
| 2026-05-06 16:56 | 40.38747 | 0.77113 | 31152 ft | 503 kts | 45° |
| 2026-05-06 16:56 | 40.41095 | 0.80450 | 31639 ft | 503 kts | 45° |
| 2026-05-06 16:57 | 40.43464 | 0.83821 | 32124 ft | 502 kts | 45° |
| 2026-05-06 16:57 | 40.45845 | 0.87214 | 32624 ft | 502 kts | 45° |
| 2026-05-06 16:57 | 40.48190 | 0.90558 | 33106 ft | 501 kts | 45° |
| 2026-05-06 16:57 | 40.50574 | 0.93963 | 33584 ft | 500 kts | 45° |
| 2026-05-06 16:58 | 40.52898 | 0.97286 | 34036 ft | 499 kts | 45° |
| 2026-05-06 16:58 | 40.55255 | 1.00657 | 34481 ft | 498 kts | 45° |
| 2026-05-06 16:58 | 40.57592 | 1.04008 | 34915 ft | 497 kts | 45° |
| 2026-05-06 16:58 | 40.59928 | 1.07361 | 35340 ft | 496 kts | 45° |
| 2026-05-06 16:59 | 40.62245 | 1.10692 | 35691 ft | 496 kts | 45° |
| 2026-05-06 16:59 | 40.64569 | 1.14036 | 36006 ft | 495 kts | 45° |
| 2026-05-06 16:59 | 40.66881 | 1.17368 | 36312 ft | 494 kts | 45° |
| 2026-05-06 16:59 | 40.69185 | 1.20692 | 36605 ft | 493 kts | 45° |
| 2026-05-06 17:00 | 40.71506 | 1.24043 | 36851 ft | 493 kts | 45° |
| 2026-05-06 17:00 | 40.73808 | 1.27369 | 37075 ft | 493 kts | 45° |
| 2026-05-06 17:00 | 40.76080 | 1.30651 | 37287 ft | 493 kts | 45° |
| 2026-05-06 17:00 | 40.78406 | 1.34016 | 37498 ft | 492 kts | 45° |
| 2026-05-06 17:01 | 40.80686 | 1.37316 | 37699 ft | 492 kts | 45° |
| 2026-05-06 17:01 | 40.82984 | 1.40647 | 37882 ft | 492 kts | 45° |
| 2026-05-06 17:01 | 40.85289 | 1.43991 | 37919 ft | 494 kts | 45° |
| 2026-05-06 17:02 | 40.89896 | 1.50690 | 37918 ft | 489 kts | 45° |
| 2026-05-06 17:02 | 40.94450 | 1.57332 | 37918 ft | 488 kts | 45° |
| 2026-05-06 17:03 | 40.98984 | 1.63959 | 37914 ft | 488 kts | 45° |
| 2026-05-06 17:03 | 41.03528 | 1.70615 | 37915 ft | 488 kts | 46° |
| 2026-05-06 17:04 | 41.08096 | 1.77320 | 37918 ft | 488 kts | 46° |
| 2026-05-06 17:04 | 41.12631 | 1.83988 | 37923 ft | 488 kts | 46° |
| 2026-05-06 17:05 | 41.17152 | 1.90650 | 37928 ft | 489 kts | 46° |
| 2026-05-06 17:05 | 41.21692 | 1.97356 | 37930 ft | 488 kts | 46° |
| 2026-05-06 17:06 | 41.26237 | 2.04086 | 37939 ft | 488 kts | 46° |
| 2026-05-06 17:06 | 41.30235 | 2.11311 | 37942 ft | 490 kts | 63° |
| 2026-05-06 17:07 | 41.32539 | 2.19841 | 37942 ft | 490 kts | 76° |
| 2026-05-06 17:07 | 41.34135 | 2.28592 | 37938 ft | 488 kts | 79° |
| 2026-05-06 17:08 | 41.35594 | 2.37378 | 37939 ft | 487 kts | 79° |
| 2026-05-06 17:08 | 41.37065 | 2.46200 | 37934 ft | 488 kts | 79° |
| 2026-05-06 17:09 | 41.38554 | 2.54969 | 37931 ft | 489 kts | 79° |
| 2026-05-06 17:09 | 41.40065 | 2.63752 | 37924 ft | 488 kts | 78° |
| 2026-05-06 17:10 | 41.41582 | 2.72544 | 37919 ft | 488 kts | 79° |
| 2026-05-06 17:10 | 41.43101 | 2.81361 | 37923 ft | 489 kts | 79° |
| 2026-05-06 17:11 | 41.44603 | 2.90112 | 37929 ft | 489 kts | 79° |
| 2026-05-06 17:11 | 41.46110 | 2.98929 | 37935 ft | 489 kts | 79° |
| 2026-05-06 17:12 | 41.47602 | 3.07709 | 37940 ft | 488 kts | 79° |
| 2026-05-06 17:12 | 41.49097 | 3.16548 | 37940 ft | 489 kts | 79° |
| 2026-05-06 17:13 | 41.50572 | 3.25323 | 37940 ft | 489 kts | 79° |
| 2026-05-06 17:13 | 41.52055 | 3.34186 | 37941 ft | 489 kts | 79° |
| 2026-05-06 17:14 | 41.53529 | 3.43046 | 37941 ft | 490 kts | 79° |
| 2026-05-06 17:14 | 41.54990 | 3.51872 | 37938 ft | 490 kts | 80° |
| 2026-05-06 17:15 | 41.56448 | 3.60726 | 37934 ft | 490 kts | 80° |
| 2026-05-06 17:15 | 41.57888 | 3.69532 | 37934 ft | 490 kts | 81° |
| 2026-05-06 17:16 | 41.59333 | 3.78411 | 37933 ft | 490 kts | 81° |
| 2026-05-06 17:16 | 41.60774 | 3.87305 | 37933 ft | 490 kts | 81° |
| 2026-05-06 17:17 | 41.62209 | 3.96191 | 37933 ft | 490 kts | 81° |
| 2026-05-06 17:17 | 41.63628 | 4.05020 | 37933 ft | 491 kts | 81° |
| 2026-05-06 17:18 | 41.65050 | 4.13908 | 37935 ft | 491 kts | 81° |
| 2026-05-06 17:18 | 41.66465 | 4.22800 | 37936 ft | 491 kts | 81° |
| 2026-05-06 17:19 | 41.67875 | 4.31707 | 37935 ft | 489 kts | 81° |
| 2026-05-06 17:19 | 41.69276 | 4.40605 | 37937 ft | 489 kts | 81° |
| 2026-05-06 17:20 | 41.70665 | 4.49483 | 37941 ft | 489 kts | 81° |
| 2026-05-06 17:20 | 41.72060 | 4.58375 | 37941 ft | 490 kts | 79° |
| 2026-05-06 17:21 | 41.74304 | 4.66907 | 37939 ft | 493 kts | 60° |
| 2026-05-06 17:21 | 41.76313 | 4.70667 | 37946 ft | 493 kts | 48° |
| 2026-05-06 17:21 | 41.78594 | 4.74023 | 37943 ft | 493 kts | 45° |
| 2026-05-06 17:22 | 41.83477 | 4.80510 | 37939 ft | 492 kts | 42° |
| 2026-05-06 17:22 | 41.88416 | 4.86830 | 37935 ft | 491 kts | 42° |
| 2026-05-06 17:23 | 41.93321 | 4.93167 | 37930 ft | 491 kts | 42° |
| 2026-05-06 17:23 | 41.98199 | 4.99567 | 37926 ft | 491 kts | 43° |
| 2026-05-06 17:24 | 42.03050 | 5.06001 | 37907 ft | 491 kts | 43° |
| 2026-05-06 17:24 | 42.07916 | 5.12492 | 37905 ft | 491 kts | 43° |
| 2026-05-06 17:25 | 42.12764 | 5.18983 | 37921 ft | 491 kts | 43° |
| 2026-05-06 17:25 | 42.17593 | 5.25465 | 37924 ft | 490 kts | 43° |
| 2026-05-06 17:26 | 42.22414 | 5.31950 | 37923 ft | 490 kts | 43° |
| 2026-05-06 17:26 | 42.27240 | 5.38455 | 37922 ft | 490 kts | 43° |
| 2026-05-06 17:27 | 42.32021 | 5.44914 | 37921 ft | 490 kts | 43° |
| 2026-05-06 17:27 | 42.36828 | 5.51422 | 37920 ft | 490 kts | 43° |
| 2026-05-06 17:28 | 42.41620 | 5.57925 | 37919 ft | 490 kts | 43° |
| 2026-05-06 17:28 | 42.46415 | 5.64447 | 37918 ft | 490 kts | 43° |
| 2026-05-06 17:29 | 42.51201 | 5.70972 | 37917 ft | 490 kts | 44° |
| 2026-05-06 17:29 | 42.55995 | 5.77523 | 37916 ft | 490 kts | 44° |
| 2026-05-06 17:30 | 42.60781 | 5.84077 | 37914 ft | 490 kts | 44° |
| 2026-05-06 17:30 | 42.65573 | 5.90654 | 37913 ft | 489 kts | 44° |
| 2026-05-06 17:31 | 42.70337 | 5.97209 | 37910 ft | 489 kts | 44° |
| 2026-05-06 17:31 | 42.75085 | 6.03757 | 37910 ft | 489 kts | 44° |
| 2026-05-06 17:32 | 42.79864 | 6.10363 | 37922 ft | 489 kts | 44° |
| 2026-05-06 17:32 | 42.84637 | 6.16939 | 37924 ft | 489 kts | 43° |
| 2026-05-06 17:33 | 42.89620 | 6.23112 | 37911 ft | 487 kts | 38° |
| 2026-05-06 17:33 | 42.94817 | 6.29059 | 37907 ft | 487 kts | 37° |
| 2026-05-06 17:34 | 43.00024 | 6.34935 | 37905 ft | 488 kts | 37° |
| 2026-05-06 17:34 | 43.05217 | 6.40836 | 37906 ft | 488 kts | 38° |
| 2026-05-06 17:35 | 43.10443 | 6.46826 | 37907 ft | 488 kts | 38° |
| 2026-05-06 17:35 | 43.15618 | 6.52797 | 37905 ft | 488 kts | 38° |
| 2026-05-06 17:36 | 43.23014 | 6.62334 | 37898 ft | 489 kts | 48° |
| 2026-05-06 17:36 | 43.27206 | 6.69600 | 37889 ft | 489 kts | 54° |
| 2026-05-06 17:37 | 43.31189 | 6.77213 | 37884 ft | 490 kts | 55° |
| 2026-05-06 17:37 | 43.35095 | 6.84808 | 37878 ft | 489 kts | 55° |
| 2026-05-06 17:38 | 43.39036 | 6.92436 | 37870 ft | 489 kts | 55° |
| 2026-05-06 17:38 | 43.43003 | 7.00069 | 37858 ft | 489 kts | 54° |
| 2026-05-06 17:39 | 43.46963 | 7.07671 | 37849 ft | 489 kts | 54° |
| 2026-05-06 17:39 | 43.50918 | 7.15261 | 37840 ft | 489 kts | 54° |
| 2026-05-06 17:40 | 43.54857 | 7.22836 | 37845 ft | 489 kts | 54° |
| 2026-05-06 17:40 | 43.58802 | 7.30441 | 37851 ft | 490 kts | 54° |
| 2026-05-06 17:41 | 43.62758 | 7.38089 | 37849 ft | 490 kts | 54° |
| 2026-05-06 17:41 | 43.66711 | 7.45751 | 37842 ft | 490 kts | 54° |
| 2026-05-06 17:42 | 43.70654 | 7.53414 | 37836 ft | 490 kts | 54° |
| 2026-05-06 17:42 | 43.74567 | 7.61037 | 37835 ft | 490 kts | 54° |
| 2026-05-06 17:43 | 43.78516 | 7.68743 | 37838 ft | 490 kts | 55° |
| 2026-05-06 17:43 | 43.82745 | 7.76063 | 37849 ft | 490 kts | 45° |
| 2026-05-06 17:44 | 43.87812 | 7.82325 | 37863 ft | 490 kts | 37° |
| 2026-05-06 17:44 | 43.93131 | 7.88195 | 37843 ft | 491 kts | 42° |
| 2026-05-06 17:45 | 43.95379 | 7.91742 | 37783 ft | 490 kts | 58° |
| 2026-05-06 17:45 | 43.96890 | 7.95896 | 37752 ft | 486 kts | 71° |
| 2026-05-06 17:45 | 43.98980 | 8.04742 | 37778 ft | 483 kts | 77° |
| 2026-05-06 17:46 | 44.00835 | 8.13758 | 37854 ft | 487 kts | 77° |
| 2026-05-06 17:46 | 44.02703 | 8.22751 | 37843 ft | 485 kts | 77° |
| 2026-05-06 17:47 | 44.04622 | 8.31709 | 37845 ft | 485 kts | 76° |
| 2026-05-06 17:47 | 44.06578 | 8.40664 | 37845 ft | 485 kts | 76° |
| 2026-05-06 17:48 | 44.08539 | 8.49568 | 37685 ft | 484 kts | 76° |
| 2026-05-06 17:48 | 44.09520 | 8.54016 | 37325 ft | 481 kts | 76° |
| 2026-05-06 17:48 | 44.10495 | 8.58442 | 36815 ft | 483 kts | 76° |
| 2026-05-06 17:49 | 44.11485 | 8.62948 | 36199 ft | 486 kts | 76° |
| 2026-05-06 17:49 | 44.12463 | 8.67409 | 35686 ft | 486 kts | 77° |
| 2026-05-06 17:49 | 44.13443 | 8.71889 | 35181 ft | 484 kts | 77° |
| 2026-05-06 17:49 | 44.14427 | 8.76391 | 34671 ft | 483 kts | 77° |
| 2026-05-06 17:50 | 44.15387 | 8.80792 | 34126 ft | 481 kts | 77° |
| 2026-05-06 17:50 | 44.16360 | 8.85256 | 33608 ft | 478 kts | 77° |
| 2026-05-06 17:50 | 44.17318 | 8.89664 | 33104 ft | 475 kts | 77° |
| 2026-05-06 17:50 | 44.18267 | 8.94043 | 32607 ft | 472 kts | 77° |
| 2026-05-06 17:51 | 44.19209 | 8.98396 | 32044 ft | 468 kts | 77° |
| 2026-05-06 17:51 | 44.20130 | 9.02657 | 31537 ft | 463 kts | 77° |
| 2026-05-06 17:51 | 44.21047 | 9.06914 | 31043 ft | 457 kts | 77° |
| 2026-05-06 17:51 | 44.21953 | 9.11130 | 30555 ft | 452 kts | 77° |
| 2026-05-06 17:52 | 44.22851 | 9.15315 | 30104 ft | 447 kts | 77° |
| 2026-05-06 17:52 | 44.23730 | 9.19422 | 29645 ft | 443 kts | 77° |
| 2026-05-06 17:52 | 44.24603 | 9.23518 | 29166 ft | 441 kts | 78° |
| 2026-05-06 17:52 | 44.25460 | 9.27544 | 28689 ft | 438 kts | 78° |
| 2026-05-06 17:53 | 44.26323 | 9.31608 | 28182 ft | 436 kts | 77° |
| 2026-05-06 17:53 | 44.27174 | 9.35624 | 27699 ft | 432 kts | 77° |
| 2026-05-06 17:53 | 44.28027 | 9.39657 | 27216 ft | 429 kts | 77° |
| 2026-05-06 17:53 | 44.28858 | 9.43590 | 26756 ft | 425 kts | 77° |
| 2026-05-06 17:54 | 44.29682 | 9.47493 | 26234 ft | 417 kts | 77° |
| 2026-05-06 17:54 | 44.30498 | 9.51362 | 25612 ft | 413 kts | 77° |
| 2026-05-06 17:54 | 44.31298 | 9.55164 | 25071 ft | 406 kts | 77° |
| 2026-05-06 17:54 | 44.31985 | 9.58906 | 24575 ft | 400 kts | 83° |
| 2026-05-06 17:55 | 44.32457 | 9.62739 | 24095 ft | 394 kts | 87° |
| 2026-05-06 17:55 | 44.32776 | 9.66485 | 23650 ft | 387 kts | 90° |
| 2026-05-06 17:55 | 44.33025 | 9.70150 | 23215 ft | 382 kts | 91° |
| 2026-05-06 17:55 | 44.33253 | 9.73841 | 22780 ft | 377 kts | 91° |
| 2026-05-06 17:56 | 44.33469 | 9.77439 | 22389 ft | 378 kts | 91° |
| 2026-05-06 17:56 | 44.33690 | 9.81144 | 21945 ft | 382 kts | 91° |
| 2026-05-06 17:56 | 44.33915 | 9.84815 | 21498 ft | 381 kts | 91° |
| 2026-05-06 17:56 | 44.34147 | 9.88476 | 21052 ft | 381 kts | 90° |
| 2026-05-06 17:57 | 44.34388 | 9.92185 | 20607 ft | 380 kts | 89° |
| 2026-05-06 17:57 | 44.34804 | 9.95834 | 20032 ft | 387 kts | 81° |
| 2026-05-06 17:57 | 44.35519 | 9.99498 | 19283 ft | 397 kts | 76° |
| 2026-05-06 17:57 | 44.36385 | 10.03153 | 18470 ft | 405 kts | 74° |
| 2026-05-06 17:58 | 44.37328 | 10.06866 | 17656 ft | 410 kts | 73° |
| 2026-05-06 17:58 | 44.38287 | 10.10589 | 16894 ft | 407 kts | 73° |
| 2026-05-06 17:58 | 44.39218 | 10.14267 | 16098 ft | 401 kts | 73° |
| 2026-05-06 17:58 | 44.40116 | 10.17918 | 15292 ft | 394 kts | 74° |
| 2026-05-06 17:59 | 44.40971 | 10.21485 | 14471 ft | 389 kts | 74° |
| 2026-05-06 17:59 | 44.41811 | 10.25047 | 13653 ft | 384 kts | 75° |
| 2026-05-06 17:59 | 44.42630 | 10.28564 | 12850 ft | 379 kts | 75° |
| 2026-05-06 17:59 | 44.43426 | 10.32005 | 12064 ft | 375 kts | 75° |
| 2026-05-06 18:00 | 44.44224 | 10.35465 | 11558 ft | 365 kts | 75° |
| 2026-05-06 18:00 | 44.44982 | 10.38745 | 11208 ft | 352 kts | 75° |
| 2026-05-06 18:00 | 44.45719 | 10.41944 | 10815 ft | 341 kts | 75° |
| 2026-05-06 18:00 | 44.46431 | 10.45033 | 10439 ft | 330 kts | 76° |
| 2026-05-06 18:01 | 44.47118 | 10.48028 | 10044 ft | 320 kts | 75° |
| 2026-05-06 18:01 | 44.47781 | 10.50921 | 9831 ft | 305 kts | 75° |
| 2026-05-06 18:01 | 44.48424 | 10.53735 | 9446 ft | 305 kts | 75° |
| 2026-05-06 18:01 | 44.49070 | 10.56580 | 9060 ft | 307 kts | 75° |
| 2026-05-06 18:02 | 44.49717 | 10.59428 | 8613 ft | 308 kts | 75° |
| 2026-05-06 18:02 | 44.50364 | 10.62266 | 8240 ft | 306 kts | 75° |
| 2026-05-06 18:02 | 44.51022 | 10.65085 | 7849 ft | 305 kts | 73° |
| 2026-05-06 18:02 | 44.51737 | 10.67873 | 7419 ft | 302 kts | 72° |
| 2026-05-06 18:03 | 44.52459 | 10.70553 | 7106 ft | 292 kts | 71° |
| 2026-05-06 18:03 | 44.53170 | 10.73196 | 6753 ft | 284 kts | 72° |
| 2026-05-06 18:03 | 44.53842 | 10.75746 | 6419 ft | 276 kts | 72° |
| 2026-05-06 18:03 | 44.54490 | 10.78229 | 6092 ft | 269 kts | 72° |
| 2026-05-06 18:04 | 44.55131 | 10.80689 | 5776 ft | 267 kts | 72° |
| 2026-05-06 18:04 | 44.55758 | 10.83099 | 5448 ft | 266 kts | 72° |
| 2026-05-06 18:04 | 44.56396 | 10.85543 | 5136 ft | 263 kts | 72° |
| 2026-05-06 18:04 | 44.57012 | 10.87903 | 4814 ft | 255 kts | 72° |
| 2026-05-06 18:05 | 44.57612 | 10.90195 | 4504 ft | 245 kts | 72° |
| 2026-05-06 18:05 | 44.58179 | 10.92372 | 4213 ft | 236 kts | 72° |
| 2026-05-06 18:05 | 44.58733 | 10.94497 | 3938 ft | 227 kts | 72° |
| 2026-05-06 18:05 | 44.59261 | 10.96528 | 3782 ft | 214 kts | 72° |
| 2026-05-06 18:06 | 44.59758 | 10.98436 | 3647 ft | 200 kts | 72° |
| 2026-05-06 18:06 | 44.60221 | 11.00223 | 3490 ft | 192 kts | 72° |
| 2026-05-06 18:06 | 44.60674 | 11.01972 | 3338 ft | 189 kts | 72° |
| 2026-05-06 18:06 | 44.61121 | 11.03700 | 3194 ft | 189 kts | 72° |
| 2026-05-06 18:07 | 44.61505 | 11.05463 | 3092 ft | 185 kts | 87° |
| 2026-05-06 18:07 | 44.61301 | 11.07173 | 3038 ft | 180 kts | 118° |
| 2026-05-06 18:07 | 44.60742 | 11.08763 | 2975 ft | 180 kts | 119° |
| 2026-05-06 18:07 | 44.60197 | 11.10354 | 2897 ft | 181 kts | 119° |
| 2026-05-06 18:08 | 44.59640 | 11.11930 | 2616 ft | 183 kts | 120° |
| 2026-05-06 18:08 | 44.59070 | 11.13517 | 2360 ft | 182 kts | 120° |
| 2026-05-06 18:08 | 44.58503 | 11.15098 | 2108 ft | 180 kts | 120° |
| 2026-05-06 18:08 | 44.57942 | 11.16659 | 1863 ft | 178 kts | 120° |
| 2026-05-06 18:09 | 44.57399 | 11.18173 | 1645 ft | 168 kts | 120° |
| 2026-05-06 18:09 | 44.56888 | 11.19595 | 1431 ft | 158 kts | 120° |
| 2026-05-06 18:09 | 44.56393 | 11.20967 | 1168 ft | 152 kts | 120° |
| 2026-05-06 18:09 | 44.55919 | 11.22284 | 982 ft | 152 kts | 119° |
| 2026-05-06 18:10 | 44.55445 | 11.23599 | 775 ft | 151 kts | 118° |
| 2026-05-06 18:10 | 44.54976 | 11.24901 | 577 ft | 149 kts | 118° |
| 2026-05-06 18:10 | 44.54514 | 11.26185 | 383 ft | 147 kts | 117° |
| 2026-05-06 18:10 | 44.54050 | 11.27469 | 190 ft | 146 kts | 117° |
| 2026-05-06 18:11 | 44.53607 | 11.28688 | 118 ft | 119 kts | 115° |
| 2026-05-06 18:11 | 44.53336 | 11.29444 | 123 ft | 52 kts | 117° |
| 2026-05-06 18:11 | 44.53183 | 11.29661 | 123 ft | 20 kts | 147° |
| 2026-05-06 18:11 | 44.53073 | 11.29764 | 123 ft | 12 kts | 146° |
| 2026-05-06 18:12 | 44.53033 | 11.29741 | 125 ft | 4 kts | 262° |
| 2026-05-06 18:12 | 44.53044 | 11.29707 | 125 ft | 4 kts | 299° |
| 2026-05-06 18:12 | 44.53069 | 11.29643 | 126 ft | 9 kts | 295° |
| 2026-05-06 18:12 | 44.53073 | 11.29572 | 127 ft | 6 kts | 224° |
| 2026-05-06 18:13 | 44.53044 | 11.29575 | 128 ft | 3 kts | 131° |
| 2026-05-06 18:13 | 44.53029 | 11.29588 | 128 ft | 2 kts | 189° |
| 2026-05-06 18:13 | 44.53017 | 11.29587 | 128 ft | 1 kts | 185° |
| 2026-05-06 18:13 | 44.53010 | 11.29585 | 128 ft | 1 kts | 189° |
| 2026-05-06 18:14 | 44.52997 | 11.29578 | 128 ft | 1 kts | 206° |
| 2026-05-06 18:14 | 44.52988 | 11.29572 | 129 ft | 0 kts | 206° |